sensor_id;sensor_type;location;lat;lon;timestamp;temperature;humidity
1994;DHT22;998;49.906;10.908;2024-03-29T00:00:51;7.50;99.90
1994;DHT22;998;49.906;10.908;2024-03-29T00:03:17;7.50;99.90
1994;DHT22;998;49.906;10.908;2024-03-29T00:05:43;7.50;99.90
1994;DHT22;998;49.906;10.908;2024-03-29T00:08:10;7.50;99.90
1994;DHT22;998;49.906;10.908;2024-03-29T00:10:36;7.50;99.90
1994;DHT22;998;49.906;10.908;2024-03-29T00:13:04;7.50;99.90
1994;DHT22;998;49.906;10.908;2024-03-29T00:15:31;7.50;99.90
1994;DHT22;998;49.906;10.908;2024-03-29T00:17:58;7.50;99.90
1994;DHT22;998;49.906;10.908;2024-03-29T00:20:24;7.50;99.90
1994;DHT22;998;49.906;10.908;2024-03-29T00:22:51;7.50;99.90
1994;DHT22;998;49.906;10.908;2024-03-29T00:25:17;7.50;99.90
1994;DHT22;998;49.906;10.908;2024-03-29T00:27:43;7.50;99.90
1994;DHT22;998;49.906;10.908;2024-03-29T00:30:12;7.50;99.90
1994;DHT22;998;49.906;10.908;2024-03-29T00:32:38;7.50;99.90
1994;DHT22;998;49.906;10.908;2024-03-29T00:35:05;7.50;99.90
1994;DHT22;998;49.906;10.908;2024-03-29T00:37:31;7.50;99.90
1994;DHT22;998;49.906;10.908;2024-03-29T00:39:58;7.50;99.90
1994;DHT22;998;49.906;10.908;2024-03-29T00:42:24;7.40;99.90
1994;DHT22;998;49.906;10.908;2024-03-29T00:44:51;7.40;99.90
1994;DHT22;998;49.906;10.908;2024-03-29T00:47:18;7.40;99.90
1994;DHT22;998;49.906;10.908;2024-03-29T00:49:45;7.40;99.90
1994;DHT22;998;49.906;10.908;2024-03-29T00:52:11;7.40;99.90
1994;DHT22;998;49.906;10.908;2024-03-29T00:54:37;7.40;99.90
1994;DHT22;998;49.906;10.908;2024-03-29T00:57:04;7.40;99.90
1994;DHT22;998;49.906;10.908;2024-03-29T00:59:30;7.40;99.90
1994;DHT22;998;49.906;10.908;2024-03-29T01:01:56;7.40;99.90
1994;DHT22;998;49.906;10.908;2024-03-29T01:04:24;7.40;99.90
1994;DHT22;998;49.906;10.908;2024-03-29T01:06:50;7.40;99.90
1994;DHT22;998;49.906;10.908;2024-03-29T01:09:17;7.40;99.90
1994;DHT22;998;49.906;10.908;2024-03-29T01:11:43;7.40;99.90
1994;DHT22;998;49.906;10.908;2024-03-29T01:14:09;7.40;99.90
1994;DHT22;998;49.906;10.908;2024-03-29T01:16:36;7.40;99.90
1994;DHT22;998;49.906;10.908;2024-03-29T01:19:02;7.40;99.90
1994;DHT22;998;49.906;10.908;2024-03-29T01:21:30;7.40;99.90
1994;DHT22;998;49.906;10.908;2024-03-29T01:23:56;7.30;99.90
1994;DHT22;998;49.906;10.908;2024-03-29T01:26:22;7.40;99.90
1994;DHT22;998;49.906;10.908;2024-03-29T01:28:49;7.40;99.90
1994;DHT22;998;49.906;10.908;2024-03-29T01:31:15;7.40;99.90
1994;DHT22;998;49.906;10.908;2024-03-29T01:33:41;7.50;99.90
1994;DHT22;998;49.906;10.908;2024-03-29T01:36:08;7.50;99.90
1994;DHT22;998;49.906;10.908;2024-03-29T01:38:35;7.50;99.90
1994;DHT22;998;49.906;10.908;2024-03-29T01:41:02;7.30;99.90
1994;DHT22;998;49.906;10.908;2024-03-29T01:43:28;7.40;99.90
1994;DHT22;998;49.906;10.908;2024-03-29T01:45:56;7.50;99.90
1994;DHT22;998;49.906;10.908;2024-03-29T01:48:24;7.50;99.90
1994;DHT22;998;49.906;10.908;2024-03-29T01:50:55;7.50;99.90
1994;DHT22;998;49.906;10.908;2024-03-29T01:53:24;7.50;99.90
1994;DHT22;998;49.906;10.908;2024-03-29T01:55:53;7.50;99.90
1994;DHT22;998;49.906;10.908;2024-03-29T01:58:21;7.50;99.90
1994;DHT22;998;49.906;10.908;2024-03-29T02:00:52;7.50;99.90
1994;DHT22;998;49.906;10.908;2024-03-29T02:03:20;7.60;99.90
1994;DHT22;998;49.906;10.908;2024-03-29T02:05:49;7.60;99.90
1994;DHT22;998;49.906;10.908;2024-03-29T02:08:16;7.60;99.90
1994;DHT22;998;49.906;10.908;2024-03-29T02:10:46;7.60;99.90
1994;DHT22;998;49.906;10.908;2024-03-29T02:13:15;7.00;99.90
1994;DHT22;998;49.906;10.908;2024-03-29T02:15:43;7.60;99.90
1994;DHT22;998;49.906;10.908;2024-03-29T02:18:10;7.60;99.90
1994;DHT22;998;49.906;10.908;2024-03-29T02:20:38;7.60;99.90
1994;DHT22;998;49.906;10.908;2024-03-29T02:23:07;7.60;99.90
1994;DHT22;998;49.906;10.908;2024-03-29T02:25:38;7.60;99.90
1994;DHT22;998;49.906;10.908;2024-03-29T02:28:06;7.60;99.90
1994;DHT22;998;49.906;10.908;2024-03-29T02:30:33;7.50;99.90
1994;DHT22;998;49.906;10.908;2024-03-29T02:33:01;7.50;99.90
1994;DHT22;998;49.906;10.908;2024-03-29T02:35:29;7.60;99.90
1994;DHT22;998;49.906;10.908;2024-03-29T02:37:56;7.60;99.90
1994;DHT22;998;49.906;10.908;2024-03-29T02:40:24;7.60;99.90
1994;DHT22;998;49.906;10.908;2024-03-29T02:42:53;7.60;99.90
1994;DHT22;998;49.906;10.908;2024-03-29T02:45:20;7.60;99.90
1994;DHT22;998;49.906;10.908;2024-03-29T02:47:47;7.60;99.90
1994;DHT22;998;49.906;10.908;2024-03-29T02:50:16;7.70;99.90
1994;DHT22;998;49.906;10.908;2024-03-29T02:52:42;7.70;99.90
1994;DHT22;998;49.906;10.908;2024-03-29T02:55:10;7.70;99.90
1994;DHT22;998;49.906;10.908;2024-03-29T02:57:36;7.70;99.90
1994;DHT22;998;49.906;10.908;2024-03-29T03:00:06;7.70;99.90
1994;DHT22;998;49.906;10.908;2024-03-29T03:02:37;7.70;99.90
1994;DHT22;998;49.906;10.908;2024-03-29T03:05:06;7.80;99.90
1994;DHT22;998;49.906;10.908;2024-03-29T03:07:32;7.80;99.90
1994;DHT22;998;49.906;10.908;2024-03-29T03:10:16;7.80;99.90
1994;DHT22;998;49.906;10.908;2024-03-29T03:13:01;7.80;99.90
1994;DHT22;998;49.906;10.908;2024-03-29T03:15:30;7.80;99.90
1994;DHT22;998;49.906;10.908;2024-03-29T03:17:57;7.80;99.90
1994;DHT22;998;49.906;10.908;2024-03-29T03:20:24;7.90;99.90
1994;DHT22;998;49.906;10.908;2024-03-29T03:22:53;7.80;99.90
1994;DHT22;998;49.906;10.908;2024-03-29T03:25:24;7.80;99.90
1994;DHT22;998;49.906;10.908;2024-03-29T03:27:51;7.80;99.90
1994;DHT22;998;49.906;10.908;2024-03-29T03:30:18;7.80;99.90
1994;DHT22;998;49.906;10.908;2024-03-29T03:32:46;7.80;99.90
1994;DHT22;998;49.906;10.908;2024-03-29T03:35:13;7.80;99.90
1994;DHT22;998;49.906;10.908;2024-03-29T03:37:40;7.80;99.90
1994;DHT22;998;49.906;10.908;2024-03-29T03:40:08;7.80;99.90
1994;DHT22;998;49.906;10.908;2024-03-29T03:42:34;7.80;99.90
1994;DHT22;998;49.906;10.908;2024-03-29T03:45:00;7.80;99.90
1994;DHT22;998;49.906;10.908;2024-03-29T03:47:29;7.80;99.90
1994;DHT22;998;49.906;10.908;2024-03-29T03:49:57;7.80;99.90
1994;DHT22;998;49.906;10.908;2024-03-29T03:52:24;7.90;99.90
1994;DHT22;998;49.906;10.908;2024-03-29T03:54:51;7.80;99.90
1994;DHT22;998;49.906;10.908;2024-03-29T03:57:18;7.80;99.90
1994;DHT22;998;49.906;10.908;2024-03-29T03:59:44;7.80;99.90
1994;DHT22;998;49.906;10.908;2024-03-29T04:02:12;7.80;99.90
1994;DHT22;998;49.906;10.908;2024-03-29T04:04:38;7.90;99.90
1994;DHT22;998;49.906;10.908;2024-03-29T04:07:07;7.90;99.90
1994;DHT22;998;49.906;10.908;2024-03-29T04:09:33;7.90;99.90
1994;DHT22;998;49.906;10.908;2024-03-29T04:12:01;7.90;99.90
1994;DHT22;998;49.906;10.908;2024-03-29T04:14:27;8.00;99.90
1994;DHT22;998;49.906;10.908;2024-03-29T04:16:54;8.00;99.90
1994;DHT22;998;49.906;10.908;2024-03-29T04:19:21;8.00;99.90
1994;DHT22;998;49.906;10.908;2024-03-29T04:21:48;8.00;99.90
1994;DHT22;998;49.906;10.908;2024-03-29T04:24:16;8.10;99.90
1994;DHT22;998;49.906;10.908;2024-03-29T04:26:43;8.10;99.90
1994;DHT22;998;49.906;10.908;2024-03-29T04:29:10;8.10;99.90
1994;DHT22;998;49.906;10.908;2024-03-29T04:31:38;8.10;99.90
1994;DHT22;998;49.906;10.908;2024-03-29T04:34:04;8.20;99.90
1994;DHT22;998;49.906;10.908;2024-03-29T04:36:31;8.20;99.90
1994;DHT22;998;49.906;10.908;2024-03-29T04:38:58;8.20;99.90
1994;DHT22;998;49.906;10.908;2024-03-29T04:41:27;8.20;99.90
1994;DHT22;998;49.906;10.908;2024-03-29T04:43:54;8.20;99.90
1994;DHT22;998;49.906;10.908;2024-03-29T04:46:21;8.20;99.90
1994;DHT22;998;49.906;10.908;2024-03-29T04:48:50;8.30;99.90
1994;DHT22;998;49.906;10.908;2024-03-29T04:51:18;8.30;99.90
1994;DHT22;998;49.906;10.908;2024-03-29T04:53:44;8.30;99.90
1994;DHT22;998;49.906;10.908;2024-03-29T04:56:11;8.40;99.90
1994;DHT22;998;49.906;10.908;2024-03-29T04:58:39;8.40;99.90
1994;DHT22;998;49.906;10.908;2024-03-29T05:01:06;8.40;99.90
1994;DHT22;998;49.906;10.908;2024-03-29T05:03:34;8.40;99.90
1994;DHT22;998;49.906;10.908;2024-03-29T05:06:01;8.50;99.90
1994;DHT22;998;49.906;10.908;2024-03-29T05:08:28;8.50;99.90
1994;DHT22;998;49.906;10.908;2024-03-29T05:10:56;8.60;99.90
1994;DHT22;998;49.906;10.908;2024-03-29T05:13:23;8.60;99.90
1994;DHT22;998;49.906;10.908;2024-03-29T05:15:52;8.60;99.90
1994;DHT22;998;49.906;10.908;2024-03-29T05:18:19;8.60;99.90
1994;DHT22;998;49.906;10.908;2024-03-29T05:20:47;8.60;99.90
1994;DHT22;998;49.906;10.908;2024-03-29T05:23:16;8.60;99.90
1994;DHT22;998;49.906;10.908;2024-03-29T05:25:44;8.60;99.90
1994;DHT22;998;49.906;10.908;2024-03-29T05:28:14;8.70;99.90
1994;DHT22;998;49.906;10.908;2024-03-29T05:30:41;8.70;99.90
1994;DHT22;998;49.906;10.908;2024-03-29T05:33:11;8.70;99.90
1994;DHT22;998;49.906;10.908;2024-03-29T05:35:38;8.70;99.90
1994;DHT22;998;49.906;10.908;2024-03-29T05:38:05;8.70;99.90
1994;DHT22;998;49.906;10.908;2024-03-29T05:40:33;8.70;99.90
1994;DHT22;998;49.906;10.908;2024-03-29T05:43:00;8.70;99.90
1994;DHT22;998;49.906;10.908;2024-03-29T05:45:29;8.70;99.90
1994;DHT22;998;49.906;10.908;2024-03-29T05:47:57;8.70;99.90
1994;DHT22;998;49.906;10.908;2024-03-29T05:50:26;8.70;99.90
1994;DHT22;998;49.906;10.908;2024-03-29T05:52:54;8.70;99.90
1994;DHT22;998;49.906;10.908;2024-03-29T05:55:22;8.70;99.90
1994;DHT22;998;49.906;10.908;2024-03-29T05:57:49;8.70;99.90
1994;DHT22;998;49.906;10.908;2024-03-29T06:00:16;8.70;99.90
1994;DHT22;998;49.906;10.908;2024-03-29T06:02:44;8.70;99.90
1994;DHT22;998;49.906;10.908;2024-03-29T06:05:13;8.70;99.90
1994;DHT22;998;49.906;10.908;2024-03-29T06:07:42;8.70;99.90
1994;DHT22;998;49.906;10.908;2024-03-29T06:10:10;8.60;99.90
1994;DHT22;998;49.906;10.908;2024-03-29T06:12:37;8.70;99.90
1994;DHT22;998;49.906;10.908;2024-03-29T06:15:06;8.70;99.90
1994;DHT22;998;49.906;10.908;2024-03-29T06:17:53;8.60;99.90
1994;DHT22;998;49.906;10.908;2024-03-29T06:20:20;8.70;99.90
1994;DHT22;998;49.906;10.908;2024-03-29T06:22:49;8.60;99.90
1994;DHT22;998;49.906;10.908;2024-03-29T06:25:17;8.60;99.90
1994;DHT22;998;49.906;10.908;2024-03-29T06:27:44;8.60;99.90
1994;DHT22;998;49.906;10.908;2024-03-29T06:30:14;8.60;99.90
1994;DHT22;998;49.906;10.908;2024-03-29T06:32:42;8.60;99.90
1994;DHT22;998;49.906;10.908;2024-03-29T06:35:11;8.70;99.90
1994;DHT22;998;49.906;10.908;2024-03-29T06:37:38;8.70;99.90
1994;DHT22;998;49.906;10.908;2024-03-29T06:40:08;8.70;99.90
1994;DHT22;998;49.906;10.908;2024-03-29T06:42:36;8.70;99.90
1994;DHT22;998;49.906;10.908;2024-03-29T06:45:04;8.70;99.90
1994;DHT22;998;49.906;10.908;2024-03-29T06:47:32;8.70;99.90
1994;DHT22;998;49.906;10.908;2024-03-29T06:50:00;8.70;99.90
1994;DHT22;998;49.906;10.908;2024-03-29T06:52:27;8.70;99.90
1994;DHT22;998;49.906;10.908;2024-03-29T06:54:55;8.70;99.90
1994;DHT22;998;49.906;10.908;2024-03-29T06:57:23;8.70;99.90
1994;DHT22;998;49.906;10.908;2024-03-29T06:59:54;8.70;99.90
1994;DHT22;998;49.906;10.908;2024-03-29T07:02:22;8.70;99.90
1994;DHT22;998;49.906;10.908;2024-03-29T07:04:52;8.70;99.90
1994;DHT22;998;49.906;10.908;2024-03-29T07:07:19;8.80;99.90
1994;DHT22;998;49.906;10.908;2024-03-29T07:09:47;8.70;99.90
1994;DHT22;998;49.906;10.908;2024-03-29T07:12:14;8.80;99.90
1994;DHT22;998;49.906;10.908;2024-03-29T07:14:43;8.80;99.90
1994;DHT22;998;49.906;10.908;2024-03-29T07:17:10;8.80;99.90
1994;DHT22;998;49.906;10.908;2024-03-29T07:19:38;8.80;99.90
1994;DHT22;998;49.906;10.908;2024-03-29T07:22:05;8.90;99.90
1994;DHT22;998;49.906;10.908;2024-03-29T07:24:32;8.90;99.90
1994;DHT22;998;49.906;10.908;2024-03-29T07:27:00;8.90;99.90
1994;DHT22;998;49.906;10.908;2024-03-29T07:29:27;8.90;99.90
1994;DHT22;998;49.906;10.908;2024-03-29T07:31:56;8.90;99.90
1994;DHT22;998;49.906;10.908;2024-03-29T07:34:23;9.00;99.90
1994;DHT22;998;49.906;10.908;2024-03-29T07:36:51;9.00;99.90
1994;DHT22;998;49.906;10.908;2024-03-29T07:39:18;9.00;99.90
1994;DHT22;998;49.906;10.908;2024-03-29T07:41:46;9.10;99.90
1994;DHT22;998;49.906;10.908;2024-03-29T07:44:13;9.10;99.90
1994;DHT22;998;49.906;10.908;2024-03-29T07:46:40;9.10;99.90
1994;DHT22;998;49.906;10.908;2024-03-29T07:49:09;9.20;99.90
1994;DHT22;998;49.906;10.908;2024-03-29T07:51:37;9.20;99.90
1994;DHT22;998;49.906;10.908;2024-03-29T07:54:04;9.30;99.90
1994;DHT22;998;49.906;10.908;2024-03-29T07:56:32;9.30;99.90
1994;DHT22;998;49.906;10.908;2024-03-29T07:58:59;9.40;99.90
1994;DHT22;998;49.906;10.908;2024-03-29T08:01:26;9.50;99.90
1994;DHT22;998;49.906;10.908;2024-03-29T08:03:53;9.50;99.90
1994;DHT22;998;49.906;10.908;2024-03-29T08:06:22;9.60;99.90
1994;DHT22;998;49.906;10.908;2024-03-29T08:08:50;9.60;99.90
1994;DHT22;998;49.906;10.908;2024-03-29T08:11:17;9.60;99.90
1994;DHT22;998;49.906;10.908;2024-03-29T08:13:44;9.70;99.90
1994;DHT22;998;49.906;10.908;2024-03-29T08:16:12;9.70;99.90
1994;DHT22;998;49.906;10.908;2024-03-29T08:18:42;9.70;99.90
1994;DHT22;998;49.906;10.908;2024-03-29T08:21:09;9.80;99.90
1994;DHT22;998;49.906;10.908;2024-03-29T08:23:40;9.80;99.90
1994;DHT22;998;49.906;10.908;2024-03-29T08:26:07;9.90;99.90
1994;DHT22;998;49.906;10.908;2024-03-29T08:28:34;10.00;99.90
1994;DHT22;998;49.906;10.908;2024-03-29T08:31:05;10.00;99.90
1994;DHT22;998;49.906;10.908;2024-03-29T08:33:35;10.10;99.90
1994;DHT22;998;49.906;10.908;2024-03-29T08:36:04;10.10;99.90
1994;DHT22;998;49.906;10.908;2024-03-29T08:38:32;10.20;99.90
1994;DHT22;998;49.906;10.908;2024-03-29T08:41:01;10.20;99.90
1994;DHT22;998;49.906;10.908;2024-03-29T08:43:28;10.20;99.90
1994;DHT22;998;49.906;10.908;2024-03-29T08:45:55;10.30;99.90
1994;DHT22;998;49.906;10.908;2024-03-29T08:48:23;10.30;99.90
1994;DHT22;998;49.906;10.908;2024-03-29T08:50:51;10.40;99.90
1994;DHT22;998;49.906;10.908;2024-03-29T08:53:18;10.50;99.90
1994;DHT22;998;49.906;10.908;2024-03-29T08:55:47;10.50;99.90
1994;DHT22;998;49.906;10.908;2024-03-29T08:58:16;10.60;99.90
1994;DHT22;998;49.906;10.908;2024-03-29T09:00:53;10.60;99.90
1994;DHT22;998;49.906;10.908;2024-03-29T09:03:21;10.70;99.90
1994;DHT22;998;49.906;10.908;2024-03-29T09:05:48;10.70;99.90
1994;DHT22;998;49.906;10.908;2024-03-29T09:08:17;10.80;99.90
1994;DHT22;998;49.906;10.908;2024-03-29T09:10:44;10.80;99.90
1994;DHT22;998;49.906;10.908;2024-03-29T09:13:11;10.80;99.90
1994;DHT22;998;49.906;10.908;2024-03-29T09:15:40;10.80;99.90
1994;DHT22;998;49.906;10.908;2024-03-29T09:18:08;10.80;99.90
1994;DHT22;998;49.906;10.908;2024-03-29T09:20:43;10.90;99.90
1994;DHT22;998;49.906;10.908;2024-03-29T09:23:11;10.90;99.90
1994;DHT22;998;49.906;10.908;2024-03-29T09:25:43;10.90;99.90
1994;DHT22;998;49.906;10.908;2024-03-29T09:28:11;11.00;99.90
1994;DHT22;998;49.906;10.908;2024-03-29T09:30:39;11.00;99.90
1994;DHT22;998;49.906;10.908;2024-03-29T09:33:06;11.00;99.90
1994;DHT22;998;49.906;10.908;2024-03-29T09:35:35;11.00;99.90
1994;DHT22;998;49.906;10.908;2024-03-29T09:38:03;10.90;99.90
1994;DHT22;998;49.906;10.908;2024-03-29T09:40:32;10.90;99.90
1994;DHT22;998;49.906;10.908;2024-03-29T09:43:00;10.90;99.90
1994;DHT22;998;49.906;10.908;2024-03-29T09:45:31;10.80;99.90
1994;DHT22;998;49.906;10.908;2024-03-29T09:48:02;10.80;99.90
1994;DHT22;998;49.906;10.908;2024-03-29T09:50:30;10.80;99.90
1994;DHT22;998;49.906;10.908;2024-03-29T09:52:58;10.70;99.90
1994;DHT22;998;49.906;10.908;2024-03-29T09:55:26;10.70;99.90
1994;DHT22;998;49.906;10.908;2024-03-29T09:57:54;10.60;99.90
1994;DHT22;998;49.906;10.908;2024-03-29T10:00:22;10.50;99.90
1994;DHT22;998;49.906;10.908;2024-03-29T10:02:50;10.50;99.90
1994;DHT22;998;49.906;10.908;2024-03-29T10:05:21;10.40;99.90
1994;DHT22;998;49.906;10.908;2024-03-29T10:07:49;10.40;99.90
1994;DHT22;998;49.906;10.908;2024-03-29T10:10:17;10.40;99.90
1994;DHT22;998;49.906;10.908;2024-03-29T10:12:45;10.30;99.90
1994;DHT22;998;49.906;10.908;2024-03-29T10:15:12;10.20;99.90
1994;DHT22;998;49.906;10.908;2024-03-29T10:17:45;10.20;99.90
1994;DHT22;998;49.906;10.908;2024-03-29T10:20:16;10.10;99.90
1994;DHT22;998;49.906;10.908;2024-03-29T10:22:46;10.00;99.90
1994;DHT22;998;49.906;10.908;2024-03-29T10:25:14;10.00;99.90
1994;DHT22;998;49.906;10.908;2024-03-29T10:27:41;9.90;99.90
1994;DHT22;998;49.906;10.908;2024-03-29T10:30:10;9.80;99.90
1994;DHT22;998;49.906;10.908;2024-03-29T10:32:43;9.80;99.90
1994;DHT22;998;49.906;10.908;2024-03-29T10:35:11;9.80;99.90
1994;DHT22;998;49.906;10.908;2024-03-29T10:37:38;9.80;99.90
1994;DHT22;998;49.906;10.908;2024-03-29T10:40:10;9.80;99.90
1994;DHT22;998;49.906;10.908;2024-03-29T10:42:41;9.90;99.90
1994;DHT22;998;49.906;10.908;2024-03-29T10:45:10;9.90;99.90
1994;DHT22;998;49.906;10.908;2024-03-29T10:47:38;10.00;99.90
1994;DHT22;998;49.906;10.908;2024-03-29T10:50:10;10.00;99.90
1994;DHT22;998;49.906;10.908;2024-03-29T10:52:39;10.10;99.90
1994;DHT22;998;49.906;10.908;2024-03-29T10:55:10;10.20;99.90
1994;DHT22;998;49.906;10.908;2024-03-29T10:57:41;10.30;99.90
1994;DHT22;998;49.906;10.908;2024-03-29T11:00:11;10.40;99.90
1994;DHT22;998;49.906;10.908;2024-03-29T11:02:48;10.40;99.90
1994;DHT22;998;49.906;10.908;2024-03-29T11:05:16;10.40;99.90
1994;DHT22;998;49.906;10.908;2024-03-29T11:07:44;10.30;99.90
1994;DHT22;998;49.906;10.908;2024-03-29T11:10:16;10.30;99.90
1994;DHT22;998;49.906;10.908;2024-03-29T11:12:59;10.40;99.90
1994;DHT22;998;49.906;10.908;2024-03-29T11:15:30;10.30;99.90
1994;DHT22;998;49.906;10.908;2024-03-29T11:17:58;10.40;99.90
1994;DHT22;998;49.906;10.908;2024-03-29T11:20:27;10.40;99.90
1994;DHT22;998;49.906;10.908;2024-03-29T11:23:03;10.40;99.90
1994;DHT22;998;49.906;10.908;2024-03-29T11:25:44;10.40;99.90
1994;DHT22;998;49.906;10.908;2024-03-29T11:28:15;10.50;99.90
1994;DHT22;998;49.906;10.908;2024-03-29T11:30:47;10.50;99.90
1994;DHT22;998;49.906;10.908;2024-03-29T11:33:31;10.60;99.90
1994;DHT22;998;49.906;10.908;2024-03-29T11:36:00;10.60;99.90
1994;DHT22;998;49.906;10.908;2024-03-29T11:38:31;10.60;99.90
1994;DHT22;998;49.906;10.908;2024-03-29T11:41:07;10.60;99.90
1994;DHT22;998;49.906;10.908;2024-03-29T11:43:37;10.70;99.90
1994;DHT22;998;49.906;10.908;2024-03-29T11:46:06;10.70;99.90
1994;DHT22;998;49.906;10.908;2024-03-29T11:48:34;10.70;99.90
1994;DHT22;998;49.906;10.908;2024-03-29T11:51:03;10.70;99.90
1994;DHT22;998;49.906;10.908;2024-03-29T11:53:31;10.70;99.90
1994;DHT22;998;49.906;10.908;2024-03-29T11:56:00;10.70;99.90
1994;DHT22;998;49.906;10.908;2024-03-29T11:58:29;10.70;99.90
1994;DHT22;998;49.906;10.908;2024-03-29T12:00:57;10.70;99.90
1994;DHT22;998;49.906;10.908;2024-03-29T12:03:26;10.70;99.90
1994;DHT22;998;49.906;10.908;2024-03-29T12:05:55;10.80;99.90
1994;DHT22;998;49.906;10.908;2024-03-29T12:08:25;10.80;99.90
1994;DHT22;998;49.906;10.908;2024-03-29T12:10:52;10.80;99.90
1994;DHT22;998;49.906;10.908;2024-03-29T12:13:20;10.80;99.90
1994;DHT22;998;49.906;10.908;2024-03-29T12:15:49;10.90;99.90
1994;DHT22;998;49.906;10.908;2024-03-29T12:18:18;10.90;99.90
1994;DHT22;998;49.906;10.908;2024-03-29T12:20:47;10.80;99.90
1994;DHT22;998;49.906;10.908;2024-03-29T12:23:16;10.90;99.90
1994;DHT22;998;49.906;10.908;2024-03-29T12:25:44;10.90;99.90
1994;DHT22;998;49.906;10.908;2024-03-29T12:28:12;11.00;99.90
1994;DHT22;998;49.906;10.908;2024-03-29T12:30:41;11.00;99.90
1994;DHT22;998;49.906;10.908;2024-03-29T12:33:12;11.00;99.90
1994;DHT22;998;49.906;10.908;2024-03-29T12:35:42;11.10;99.90
1994;DHT22;998;49.906;10.908;2024-03-29T12:38:11;11.10;99.90
1994;DHT22;998;49.906;10.908;2024-03-29T12:40:41;11.20;99.90
1994;DHT22;998;49.906;10.908;2024-03-29T12:43:10;11.20;99.90
1994;DHT22;998;49.906;10.908;2024-03-29T12:45:40;11.20;99.90
1994;DHT22;998;49.906;10.908;2024-03-29T12:48:13;11.30;99.90
1994;DHT22;998;49.906;10.908;2024-03-29T12:50:42;11.40;99.90
1994;DHT22;998;49.906;10.908;2024-03-29T12:53:11;11.40;99.90
1994;DHT22;998;49.906;10.908;2024-03-29T12:55:40;11.50;99.90
1994;DHT22;998;49.906;10.908;2024-03-29T12:58:10;11.50;99.90
1994;DHT22;998;49.906;10.908;2024-03-29T13:00:38;11.50;99.90
1994;DHT22;998;49.906;10.908;2024-03-29T13:03:06;11.60;99.90
1994;DHT22;998;49.906;10.908;2024-03-29T13:05:35;11.60;99.90
1994;DHT22;998;49.906;10.908;2024-03-29T13:08:07;11.60;99.90
1994;DHT22;998;49.906;10.908;2024-03-29T13:10:35;11.70;99.90
1994;DHT22;998;49.906;10.908;2024-03-29T13:13:03;11.80;99.90
1994;DHT22;998;49.906;10.908;2024-03-29T13:15:33;11.80;99.90
1994;DHT22;998;49.906;10.908;2024-03-29T13:18:00;11.90;99.90
1994;DHT22;998;49.906;10.908;2024-03-29T13:20:28;11.90;99.90
1994;DHT22;998;49.906;10.908;2024-03-29T13:22:58;11.90;99.90
1994;DHT22;998;49.906;10.908;2024-03-29T13:25:26;11.90;99.90
1994;DHT22;998;49.906;10.908;2024-03-29T13:27:54;12.00;99.90
1994;DHT22;998;49.906;10.908;2024-03-29T13:30:22;12.00;99.90
1994;DHT22;998;49.906;10.908;2024-03-29T13:32:50;12.00;99.90
1994;DHT22;998;49.906;10.908;2024-03-29T13:35:18;12.00;99.90
1994;DHT22;998;49.906;10.908;2024-03-29T13:37:48;12.10;99.90
1994;DHT22;998;49.906;10.908;2024-03-29T13:40:18;12.10;99.90
1994;DHT22;998;49.906;10.908;2024-03-29T13:42:45;12.10;99.90
1994;DHT22;998;49.906;10.908;2024-03-29T13:45:14;12.10;99.90
1994;DHT22;998;49.906;10.908;2024-03-29T13:47:44;12.10;99.90
1994;DHT22;998;49.906;10.908;2024-03-29T13:50:13;12.20;99.90
1994;DHT22;998;49.906;10.908;2024-03-29T13:52:42;12.30;99.90
1994;DHT22;998;49.906;10.908;2024-03-29T13:55:10;12.40;99.90
1994;DHT22;998;49.906;10.908;2024-03-29T13:57:40;12.60;99.90
1994;DHT22;998;49.906;10.908;2024-03-29T14:00:10;12.70;99.90
1994;DHT22;998;49.906;10.908;2024-03-29T14:02:40;12.90;99.90
1994;DHT22;998;49.906;10.908;2024-03-29T14:05:07;13.00;99.90
1994;DHT22;998;49.906;10.908;2024-03-29T14:07:35;13.10;99.90
1994;DHT22;998;49.906;10.908;2024-03-29T14:10:02;13.10;99.90
1994;DHT22;998;49.906;10.908;2024-03-29T14:12:32;13.20;99.90
1994;DHT22;998;49.906;10.908;2024-03-29T14:15:01;13.20;99.90
1994;DHT22;998;49.906;10.908;2024-03-29T14:17:28;13.20;99.90
1994;DHT22;998;49.906;10.908;2024-03-29T14:19:55;13.20;99.90
1994;DHT22;998;49.906;10.908;2024-03-29T14:22:23;13.20;99.90
1994;DHT22;998;49.906;10.908;2024-03-29T14:24:50;13.30;99.90
1994;DHT22;998;49.906;10.908;2024-03-29T14:27:18;13.30;99.90
1994;DHT22;998;49.906;10.908;2024-03-29T14:29:45;13.40;99.90
1994;DHT22;998;49.906;10.908;2024-03-29T14:32:14;13.50;99.90
1994;DHT22;998;49.906;10.908;2024-03-29T14:34:41;13.70;99.90
1994;DHT22;998;49.906;10.908;2024-03-29T14:37:12;13.80;99.90
1994;DHT22;998;49.906;10.908;2024-03-29T14:39:42;13.90;99.90
1994;DHT22;998;49.906;10.908;2024-03-29T14:42:10;13.90;99.90
1994;DHT22;998;49.906;10.908;2024-03-29T14:44:40;13.90;99.90
1994;DHT22;998;49.906;10.908;2024-03-29T14:47:08;13.90;99.90
1994;DHT22;998;49.906;10.908;2024-03-29T14:49:37;13.90;99.90
1994;DHT22;998;49.906;10.908;2024-03-29T14:52:05;13.80;99.90
1994;DHT22;998;49.906;10.908;2024-03-29T14:54:32;13.80;99.90
1994;DHT22;998;49.906;10.908;2024-03-29T14:56:59;13.80;99.90
1994;DHT22;998;49.906;10.908;2024-03-29T14:59:26;13.80;99.90
1994;DHT22;998;49.906;10.908;2024-03-29T15:01:56;13.80;99.90
1994;DHT22;998;49.906;10.908;2024-03-29T15:04:24;13.70;99.90
1994;DHT22;998;49.906;10.908;2024-03-29T15:06:53;13.60;99.90
1994;DHT22;998;49.906;10.908;2024-03-29T15:09:20;13.60;99.90
1994;DHT22;998;49.906;10.908;2024-03-29T15:11:47;13.60;99.90
1994;DHT22;998;49.906;10.908;2024-03-29T15:14:15;13.60;99.90
1994;DHT22;998;49.906;10.908;2024-03-29T15:16:42;13.70;99.90
1994;DHT22;998;49.906;10.908;2024-03-29T15:19:10;13.80;99.90
1994;DHT22;998;49.906;10.908;2024-03-29T15:21:37;14.10;99.90
1994;DHT22;998;49.906;10.908;2024-03-29T15:24:08;14.20;99.90
1994;DHT22;998;49.906;10.908;2024-03-29T15:26:35;14.40;99.90
1994;DHT22;998;49.906;10.908;2024-03-29T15:29:03;14.50;99.90
1994;DHT22;998;49.906;10.908;2024-03-29T15:31:34;14.60;99.90
1994;DHT22;998;49.906;10.908;2024-03-29T15:34:02;14.60;99.90
1994;DHT22;998;49.906;10.908;2024-03-29T15:36:30;14.60;99.90
1994;DHT22;998;49.906;10.908;2024-03-29T15:38:58;14.60;99.90
1994;DHT22;998;49.906;10.908;2024-03-29T15:41:33;14.60;99.90
1994;DHT22;998;49.906;10.908;2024-03-29T15:44:01;14.50;99.90
1994;DHT22;998;49.906;10.908;2024-03-29T15:46:29;14.50;99.90
1994;DHT22;998;49.906;10.908;2024-03-29T15:48:56;14.60;99.90
1994;DHT22;998;49.906;10.908;2024-03-29T15:51:24;14.60;99.90
1994;DHT22;998;49.906;10.908;2024-03-29T15:53:51;14.70;99.90
1994;DHT22;998;49.906;10.908;2024-03-29T15:56:21;14.70;99.90
1994;DHT22;998;49.906;10.908;2024-03-29T15:58:50;14.80;99.90
1994;DHT22;998;49.906;10.908;2024-03-29T16:01:19;14.80;99.90
1994;DHT22;998;49.906;10.908;2024-03-29T16:03:46;14.80;99.90
1994;DHT22;998;49.906;10.908;2024-03-29T16:06:14;14.80;99.90
1994;DHT22;998;49.906;10.908;2024-03-29T16:08:41;14.80;99.90
1994;DHT22;998;49.906;10.908;2024-03-29T16:11:08;14.70;99.90
1994;DHT22;998;49.906;10.908;2024-03-29T16:13:35;14.70;99.90
1994;DHT22;998;49.906;10.908;2024-03-29T16:16:05;14.70;99.90